Time;durP1;ratioP1;P1;durP2;ratioP2;P2;SDS_P1;SDS_P2;PMS_P1;PMS_P2;Temp;Humidity;BMP_temperature;BMP_pressure;BME280_temperature;BME280_humidity;BME280_pressure;Samples;Min_cycle;Max_cycle;Signal;HPM_P1;HPM_P2
2024/04/20 00:00:25;;;;;;;1999.90;999.90;;;9.50;59.40;;;;;;5408671;26;20023;-83
2024/04/20 00:02:51;;;;;;;1999.90;999.90;;;9.50;59.50;;;;;;5421616;26;19996;-83
2024/04/20 00:05:18;;;;;;;1999.90;999.90;;;9.40;59.70;;;;;;5426754;26;20003;-84
2024/04/20 00:07:46;;;;;;;1999.90;999.90;;;9.40;59.90;;;;;;5425440;26;19999;-86
2024/04/20 00:10:12;;;;;;;1999.90;999.90;;;9.50;60.00;;;;;;5418066;26;20000;-82
2024/04/20 00:12:38;;;;;;;1999.90;999.90;;;9.50;60.60;;;;;;5418414;26;20004;-85
2024/04/20 00:15:05;;;;;;;1999.90;999.90;;;9.40;61.40;;;;;;5416755;26;20004;-82
2024/04/20 00:17:31;;;;;;;;;;;9.40;61.70;;;;;;5428836;26;19995;-79
2024/04/20 00:19:56;;;;;;;1999.90;999.90;;;9.40;62.00;;;;;;5426396;26;20365;-80
2024/04/20 00:22:22;;;;;;;1999.90;999.90;;;9.30;62.40;;;;;;5422454;26;20009;-82
2024/04/20 00:24:51;;;;;;;1999.90;999.90;;;9.30;62.70;;;;;;5418401;26;20015;-80
2024/04/20 00:27:16;;;;;;;1999.90;999.90;;;9.30;63.40;;;;;;5427966;26;20515;-81
2024/04/20 00:29:42;;;;;;;1999.90;999.90;;;9.20;63.40;;;;;;5411650;26;19999;-80
2024/04/20 00:32:08;;;;;;;1999.90;999.90;;;9.20;63.60;;;;;;5427619;26;20006;-80
2024/04/20 00:34:34;;;;;;;1999.90;999.90;;;9.20;64.20;;;;;;5423191;26;19999;-81
2024/04/20 00:37:00;;;;;;;1999.90;999.90;;;9.20;64.40;;;;;;5426437;26;20003;-79
2024/04/20 00:39:26;;;;;;;1999.90;999.90;;;9.20;64.60;;;;;;5424017;26;20027;-80
2024/04/20 00:41:54;;;;;;;1999.90;999.90;;;9.20;65.10;;;;;;5422117;26;20004;-81
2024/04/20 00:44:20;;;;;;;1999.90;999.90;;;9.00;65.50;;;;;;5423170;26;20445;-80
2024/04/20 00:46:47;;;;;;;1999.90;999.90;;;9.20;65.50;;;;;;5428395;26;19995;-79
2024/04/20 00:49:13;;;;;;;1999.90;999.90;;;9.10;65.50;;;;;;5418985;26;20003;-80
2024/04/20 00:51:41;;;;;;;1999.90;999.90;;;9.20;65.80;;;;;;5417706;26;19995;-81
2024/04/20 00:54:08;;;;;;;1999.90;999.90;;;9.20;66.10;;;;;;5416074;26;20007;-80
2024/04/20 00:56:34;;;;;;;1999.90;999.90;;;9.10;66.40;;;;;;5427648;26;20070;-79
2024/04/20 00:59:00;;;;;;;1999.90;999.90;;;9.10;67.10;;;;;;5418721;26;19996;-78
2024/04/20 01:01:26;;;;;;;1999.90;999.90;;;8.90;66.90;;;;;;5414264;26;20006;-84
2024/04/20 01:03:53;;;;;;;1999.90;999.90;;;9.00;66.60;;;;;;5418535;26;20743;-82
2024/04/20 01:06:18;;;;;;;1999.90;999.90;;;8.90;67.80;;;;;;5429986;26;20017;-81
2024/04/20 01:08:45;;;;;;;1999.90;999.90;;;9.00;67.20;;;;;;5431452;26;19999;-84
2024/04/20 01:11:11;;;;;;;1999.90;999.90;;;9.10;67.10;;;;;;5427144;26;20006;-82
2024/04/20 01:13:37;;;;;;;1999.90;999.90;;;9.00;67.20;;;;;;5411825;26;19996;-80
2024/04/20 01:16:03;;;;;;;1999.90;999.90;;;8.90;67.60;;;;;;5425484;26;20011;-78
2024/04/20 01:18:29;;;;;;;1999.90;999.90;;;8.90;68.10;;;;;;5426948;26;19999;-80
2024/04/20 01:20:55;;;;;;;1999.90;999.90;;;8.90;68.10;;;;;;5427659;26;19999;-82
2024/04/20 01:23:22;;;;;;;1999.90;999.90;;;8.90;68.40;;;;;;5408107;26;20035;-80
2024/04/20 01:25:51;;;;;;;1999.90;999.90;;;8.80;68.70;;;;;;5421665;26;20018;-80
2024/04/20 01:28:18;;;;;;;1999.90;999.90;;;8.80;68.50;;;;;;5415166;26;20091;-81
2024/04/20 01:30:44;;;;;;;1999.90;999.90;;;8.70;69.10;;;;;;5423863;26;20013;-82
2024/04/20 01:33:10;;;;;;;1999.90;999.90;;;8.60;69.60;;;;;;5431996;26;20003;-81
2024/04/20 01:35:39;;;;;;;1999.90;999.90;;;8.80;69.30;;;;;;5413103;26;20022;-80
2024/04/20 01:38:06;;;;;;;1999.90;999.90;;;8.80;69.30;;;;;;5422325;26;19999;-86
2024/04/20 01:40:32;;;;;;;1999.90;999.90;;;8.80;69.70;;;;;;5413732;26;20457;-83
2024/04/20 01:42:57;;;;;;;1999.90;999.90;;;8.80;69.60;;;;;;5427367;26;19999;-85
2024/04/20 01:45:23;;;;;;;1999.90;999.90;;;8.60;70.50;;;;;;5432416;26;19999;-83
2024/04/20 01:47:49;;;;;;;1999.90;999.90;;;8.60;70.70;;;;;;5413127;26;20000;-84
2024/04/20 01:50:16;;;;;;;1999.90;999.90;;;8.60;70.70;;;;;;5430611;26;20006;-85
2024/04/20 01:52:42;;;;;;;1999.90;999.90;;;8.60;70.50;;;;;;5424349;26;20013;-83
2024/04/20 01:55:08;;;;;;;1999.90;999.90;;;8.60;70.80;;;;;;5415515;26;20014;-80
2024/04/20 01:57:34;;;;;;;1999.90;999.90;;;8.60;70.30;;;;;;5424858;26;20022;-82
2024/04/20 02:00:00;;;;;;;1999.90;999.90;;;8.60;70.40;;;;;;5413043;26;20007;-77
2024/04/20 02:02:26;;;;;;;1999.90;999.90;;;8.60;70.50;;;;;;5413513;26;20005;-83
2024/04/20 02:04:52;;;;;;;1999.90;999.90;;;8.50;70.80;;;;;;5414348;26;20026;-83
2024/04/20 02:07:18;;;;;;;1999.90;999.90;;;8.60;70.60;;;;;;5430891;26;20016;-84
2024/04/20 02:09:44;;;;;;;1999.90;999.90;;;8.40;71.80;;;;;;5434794;26;20579;-84
2024/04/20 02:12:10;;;;;;;1999.90;999.90;;;7.80;74.20;;;;;;5416161;26;20006;-81
2024/04/20 02:14:37;;;;;;;1999.90;999.90;;;7.70;74.70;;;;;;5425280;26;20003;-82
2024/04/20 02:17:03;;;;;;;1999.90;999.90;;;7.70;74.80;;;;;;5416005;26;20006;-81
2024/04/20 02:19:28;;;;;;;1999.90;999.90;;;7.80;74.70;;;;;;5416727;26;20006;-82
2024/04/20 02:21:54;;;;;;;1999.90;999.90;;;7.90;74.50;;;;;;5422275;26;20011;-78
2024/04/20 02:24:20;;;;;;;1999.90;999.90;;;7.70;74.80;;;;;;5422487;26;19999;-82
2024/04/20 02:26:45;;;;;;;1999.90;999.90;;;7.80;74.60;;;;;;5415941;26;20346;-79
2024/04/20 02:29:11;;;;;;;1999.90;999.90;;;7.90;74.60;;;;;;5421280;26;20004;-81
2024/04/20 02:31:37;;;;;;;1999.90;999.90;;;7.80;74.60;;;;;;5420079;26;20003;-80
2024/04/20 02:34:03;;;;;;;1999.90;999.90;;;7.60;75.70;;;;;;5418697;26;20003;-79
2024/04/20 02:36:30;;;;;;;1999.90;999.90;;;7.70;75.80;;;;;;5421401;26;20083;-79
2024/04/20 02:38:56;;;;;;;1999.90;999.90;;;7.80;75.60;;;;;;5425177;26;20062;-83
2024/04/20 02:41:22;;;;;;;1999.90;999.90;;;7.90;75.10;;;;;;5413461;26;20750;-83
2024/04/20 02:43:48;;;;;;;1999.90;999.90;;;8.00;74.70;;;;;;5408164;26;19996;-82
2024/04/20 02:46:14;;;;;;;1999.90;999.90;;;8.00;74.60;;;;;;5426285;26;20017;-79
2024/04/20 02:48:40;;;;;;;1999.90;999.90;;;8.00;74.20;;;;;;5416140;26;20013;-83
2024/04/20 02:51:06;;;;;;;1999.90;999.90;;;8.10;74.20;;;;;;5416292;26;20772;-81
2024/04/20 02:53:32;;;;;;;1999.90;999.90;;;8.20;73.90;;;;;;5418080;26;20446;-79
2024/04/20 02:55:58;;;;;;;1999.90;999.90;;;8.10;74.00;;;;;;5421230;26;20075;-82
2024/04/20 02:58:24;;;;;;;1999.90;999.90;;;8.00;74.60;;;;;;5418589;26;20000;-82
2024/04/20 03:01:02;;;;;;;1999.90;999.90;;;7.90;75.10;;;;;;5430158;26;20014;-80
2024/04/20 03:03:32;;;;;;;1999.90;999.90;;;8.00;74.80;;;;;;5418012;26;20525;-80
2024/04/20 03:05:58;;;;;;;1999.90;999.90;;;8.00;74.60;;;;;;5429408;26;20011;-83
2024/04/20 03:08:24;;;;;;;1999.90;999.90;;;7.90;74.80;;;;;;5430828;26;20003;-81
2024/04/20 03:10:50;;;;;;;1999.90;999.90;;;7.90;75.20;;;;;;5429656;26;20851;-77
2024/04/20 03:13:16;;;;;;;1999.90;999.90;;;7.90;75.30;;;;;;5424532;26;20100;-80
2024/04/20 03:15:42;;;;;;;1999.90;999.90;;;7.80;75.50;;;;;;5417392;26;19999;-81
2024/04/20 03:18:09;;;;;;;1999.90;999.90;;;7.80;76.10;;;;;;5429930;26;20436;-80
2024/04/20 03:20:36;;;;;;;1999.90;999.90;;;7.80;76.20;;;;;;5421285;26;20016;-81
2024/04/20 03:23:01;;;;;;;1999.90;999.90;;;7.80;75.90;;;;;;5409556;26;20014;-82
2024/04/20 03:25:27;;;;;;;1999.90;999.90;;;7.90;75.60;;;;;;5417593;26;20890;-82
2024/04/20 03:27:53;;;;;;;1999.90;999.90;;;7.90;75.90;;;;;;5430129;26;19995;-80
2024/04/20 03:30:19;;;;;;;1999.90;999.90;;;8.00;76.40;;;;;;5428101;26;19991;-81
2024/04/20 03:32:44;;;;;;;1999.90;999.90;;;7.90;77.90;;;;;;5421171;26;20013;-86
2024/04/20 03:35:10;;;;;;;1999.90;999.90;;;7.80;79.40;;;;;;5424544;26;19995;-84
2024/04/20 03:37:36;;;;;;;1999.90;999.90;;;7.80;79.70;;;;;;5432084;26;19998;-83
2024/04/20 03:40:01;;;;;;;1999.90;999.90;;;7.80;79.90;;;;;;5427606;26;20018;-84
2024/04/20 03:42:27;;;;;;;1999.90;999.90;;;7.90;80.00;;;;;;5412457;26;20024;-81
2024/04/20 03:44:53;;;;;;;1999.90;999.90;;;7.90;80.30;;;;;;5418999;26;20000;-82
2024/04/20 03:47:19;;;;;;;1999.90;999.90;;;7.90;80.80;;;;;;5416021;26;20305;-80
2024/04/20 03:49:46;;;;;;;1999.90;999.90;;;7.70;81.50;;;;;;5420888;26;19990;-82
2024/04/20 03:52:12;;;;;;;1999.90;999.90;;;7.70;81.40;;;;;;5417799;26;20010;-80
2024/04/20 03:54:37;;;;;;;1999.90;999.90;;;7.60;81.40;;;;;;5421974;26;20022;-79
2024/04/20 03:57:03;;;;;;;1999.90;999.90;;;7.60;80.50;;;;;;5411433;26;20345;-78
2024/04/20 03:59:30;;;;;;;1999.90;999.90;;;7.70;79.80;;;;;;5415607;26;20800;-83
2024/04/20 04:01:55;;;;;;;1999.90;999.90;;;7.70;79.30;;;;;;5415514;26;20015;-81
2024/04/20 04:04:21;;;;;;;1999.90;999.90;;;7.70;78.90;;;;;;5417196;26;19991;-82
2024/04/20 04:06:46;;;;;;;1999.90;999.90;;;7.50;79.50;;;;;;5422018;26;20618;-81
2024/04/20 04:09:12;;;;;;;1999.90;999.90;;;7.50;79.80;;;;;;5423493;26;19994;-83
2024/04/20 04:11:38;;;;;;;1999.90;999.90;;;7.50;80.30;;;;;;5423516;26;19999;-81
2024/04/20 04:14:04;;;;;;;1999.90;999.90;;;7.30;80.60;;;;;;5414383;26;20039;-85
2024/04/20 04:16:29;;;;;;;1999.90;999.90;;;7.30;80.50;;;;;;5416790;26;20109;-86
2024/04/20 04:18:55;;;;;;;1999.90;999.90;;;7.30;80.50;;;;;;5417999;26;19991;-82
2024/04/20 04:21:21;;;;;;;1999.90;999.90;;;7.30;81.10;;;;;;5411324;26;20006;-83
2024/04/20 04:23:47;;;;;;;1999.90;999.90;;;7.30;80.40;;;;;;5417431;26;20750;-81
2024/04/20 04:26:12;;;;;;;1999.90;999.90;;;7.30;80.40;;;;;;5420874;26;20002;-83
2024/04/20 04:28:38;;;;;;;1999.90;999.90;;;7.20;80.30;;;;;;5417888;26;20015;-85
2024/04/20 04:31:04;;;;;;;1999.90;999.90;;;7.20;80.60;;;;;;5414098;26;19999;-84
2024/04/20 04:33:30;;;;;;;1999.90;999.90;;;7.10;81.10;;;;;;5421565;26;20665;-89
2024/04/20 04:35:57;;;;;;;1999.90;999.90;;;7.00;81.20;;;;;;5412210;26;20048;-84
2024/04/20 04:38:23;;;;;;;1999.90;999.90;;;7.10;81.20;;;;;;5425618;26;19998;-84
2024/04/20 04:40:49;;;;;;;1999.90;999.90;;;7.20;80.60;;;;;;5428508;26;20006;-87
2024/04/20 04:43:15;;;;;;;1999.90;999.90;;;7.20;80.80;;;;;;5429979;26;19995;-86
2024/04/20 04:45:40;;;;;;;1999.90;999.90;;;7.10;80.80;;;;;;5424354;26;19999;-84
2024/04/20 04:48:06;;;;;;;1999.90;999.90;;;7.20;81.20;;;;;;5425506;26;20003;-84
2024/04/20 04:50:32;;;;;;;1999.90;999.90;;;7.10;81.60;;;;;;5411906;26;19991;-87
2024/04/20 04:52:59;;;;;;;1999.90;999.90;;;7.00;81.80;;;;;;5412680;26;20007;-81
2024/04/20 04:55:26;;;;;;;1999.90;999.90;;;7.10;81.80;;;;;;5415148;26;20520;-84
2024/04/20 04:57:51;;;;;;;1999.90;999.90;;;7.20;81.50;;;;;;5417630;26;20007;-79
2024/04/20 05:00:17;;;;;;;1999.90;999.90;;;7.20;81.40;;;;;;5417114;26;19999;-79
2024/04/20 05:02:43;;;;;;;1999.90;999.90;;;7.10;82.10;;;;;;5428517;26;20516;-80
2024/04/20 05:05:08;;;;;;;1999.90;999.90;;;6.90;82.80;;;;;;5426179;26;19999;-80
2024/04/20 05:07:34;;;;;;;1999.90;999.90;;;7.00;82.70;;;;;;5423324;26;20014;-81
2024/04/20 05:10:00;;;;;;;1999.90;999.90;;;7.10;82.30;;;;;;5429765;26;20003;-79
2024/04/20 05:12:26;;;;;;;1999.90;999.90;;;7.10;82.40;;;;;;5417719;26;20357;-78
2024/04/20 05:14:52;;;;;;;1999.90;999.90;;;7.10;82.50;;;;;;5420219;26;19994;-78
2024/04/20 05:17:18;;;;;;;1999.90;999.90;;;7.10;82.30;;;;;;5418709;26;20891;-80
2024/04/20 05:19:44;;;;;;;1999.90;999.90;;;7.20;82.10;;;;;;5414563;26;19996;-82
2024/04/20 05:22:10;;;;;;;1999.90;999.90;;;7.30;81.60;;;;;;5428912;26;20018;-83
2024/04/20 05:24:35;;;;;;;1999.90;999.90;;;7.30;81.70;;;;;;5407222;26;20088;-81
2024/04/20 05:27:01;;;;;;;1999.90;999.90;;;7.80;80.40;;;;;;5414921;26;20079;-82
2024/04/20 05:29:27;;;;;;;1999.90;999.90;;;7.90;79.20;;;;;;5421856;26;20027;-84
2024/04/20 05:31:53;;;;;;;1999.90;999.90;;;7.70;80.40;;;;;;5425471;26;19994;-82
2024/04/20 05:34:18;;;;;;;1999.90;999.90;;;7.70;80.70;;;;;;5424068;26;20557;-80
2024/04/20 05:36:44;;;;;;;1999.90;999.90;;;8.10;80.10;;;;;;5421374;26;20018;-82
2024/04/20 05:39:10;;;;;;;1999.90;999.90;;;8.30;79.00;;;;;;5410236;26;20011;-85
2024/04/20 05:41:35;;;;;;;1999.90;999.90;;;8.20;79.50;;;;;;5427231;26;20549;-79
2024/04/20 05:44:01;;;;;;;1999.90;999.90;;;8.30;79.60;;;;;;5413806;26;20098;-80
2024/04/20 05:46:27;;;;;;;1999.90;999.90;;;8.60;78.70;;;;;;5406010;26;20047;-81
2024/04/20 05:48:54;;;;;;;1999.90;999.90;;;9.00;77.50;;;;;;5423577;26;20009;-80
2024/04/20 05:51:20;;;;;;;1999.90;999.90;;;9.20;76.70;;;;;;5413345;26;20007;-79
2024/04/20 05:53:46;;;;;;;1999.90;999.90;;;9.40;76.30;;;;;;5429913;26;20084;-78
2024/04/20 05:56:11;;;;;;;1999.90;999.90;;;9.70;76.20;;;;;;5416298;26;20007;-78
2024/04/20 05:58:37;;;;;;;1999.90;999.90;;;9.60;75.30;;;;;;5420396;26;20450;-76
2024/04/20 06:01:03;;;;;;;1999.90;999.90;;;9.70;75.70;;;;;;5419968;26;20014;-77
2024/04/20 06:03:29;;;;;;;1999.90;999.90;;;10.10;74.70;;;;;;5415894;26;20009;-75
2024/04/20 06:05:54;;;;;;;1999.90;999.90;;;10.70;72.70;;;;;;5411739;26;20003;-75
2024/04/20 06:08:20;;;;;;;1999.90;999.90;;;10.90;73.30;;;;;;5424869;26;20010;-78
2024/04/20 06:10:56;;;;;;;1999.90;999.90;;;11.10;71.10;;;;;;5415834;26;19999;-77
2024/04/20 06:13:22;;;;;;;1999.90;999.90;;;11.70;71.80;;;;;;5433790;26;20030;-78
2024/04/20 06:15:48;;;;;;;1999.90;999.90;;;11.50;70.80;;;;;;5407554;26;20003;-78
2024/04/20 06:18:13;;;;;;;1999.90;999.90;;;11.70;71.00;;;;;;5421707;26;20072;-76
2024/04/20 06:20:40;;;;;;;1999.90;999.90;;;12.40;68.50;;;;;;5419931;26;20018;-78
2024/04/20 06:23:06;;;;;;;1999.90;999.90;;;12.80;67.80;;;;;;5420636;26;20013;-78
2024/04/20 06:25:33;;;;;;;1999.90;999.90;;;13.20;65.70;;;;;;5408525;26;19995;-81
2024/04/20 06:27:59;;;;;;;1999.90;999.90;;;14.40;63.60;;;;;;5423097;26;20025;-79
2024/04/20 06:30:24;;;;;;;1999.90;999.90;;;14.40;61.60;;;;;;5413006;26;20011;-80
2024/04/20 06:32:51;;;;;;;1999.90;999.90;;;14.30;61.40;;;;;;5404111;26;20083;-71
2024/04/20 06:35:17;;;;;;;;;;;14.00;62.60;;;;;;5413565;26;20736;-71
2024/04/20 06:37:42;;;;;;;;;;;13.80;64.80;;;;;;5419754;26;19924;-71
2024/04/20 06:40:09;;;;;;;1999.90;999.90;;;13.90;63.00;;;;;;5414118;26;19932;-72
2024/04/20 06:42:36;;;;;;;1999.90;999.90;;;13.70;65.50;;;;;;5421521;26;20162;-71
2024/04/20 06:45:02;;;;;;;1999.90;999.90;;;13.40;63.40;;;;;;5428381;26;19995;-72
2024/04/20 06:47:27;;;;;;;1999.90;999.90;;;13.40;64.70;;;;;;5425242;26;20787;-72
2024/04/20 06:49:54;;;;;;;1999.90;999.90;;;13.50;63.30;;;;;;5412116;26;20714;-72
2024/04/20 06:52:20;;;;;;;1999.90;999.90;;;13.70;63.60;;;;;;5413366;26;20034;-71
2024/04/20 06:54:45;;;;;;;1999.90;999.90;;;13.90;62.70;;;;;;5415874;26;20002;-71
2024/04/20 06:57:11;;;;;;;1999.90;999.90;;;14.30;60.70;;;;;;5410764;26;20423;-72
2024/04/20 06:59:37;;;;;;;1999.90;999.90;;;14.60;61.70;;;;;;5417639;26;20072;-72
2024/04/20 07:02:03;;;;;;;1999.90;999.90;;;14.30;61.80;;;;;;5421983;26;20671;-71
2024/04/20 07:04:29;;;;;;;1999.90;999.90;;;14.20;60.10;;;;;;5422158;26;20006;-71
2024/04/20 07:06:55;;;;;;;1999.90;999.90;;;14.90;59.70;;;;;;5425542;26;20407;-71
2024/04/20 07:09:20;;;;;;;1999.90;999.90;;;14.90;59.90;;;;;;5419664;26;19999;-72
2024/04/20 07:11:46;;;;;;;1999.90;999.90;;;15.50;56.30;;;;;;5430047;26;19999;-73
2024/04/20 07:14:12;;;;;;;1999.90;999.90;;;15.80;53.70;;;;;;5424119;26;20084;-73
2024/04/20 07:16:37;;;;;;;1999.90;999.90;;;16.20;53.50;;;;;;5425575;26;19998;-73
2024/04/20 07:19:03;;;;;;;1999.90;999.90;;;16.40;53.30;;;;;;5413166;26;20006;-74
2024/04/20 07:21:29;;;;;;;1999.90;999.90;;;15.80;54.40;;;;;;5410961;26;20007;-72
2024/04/20 07:23:54;;;;;;;1999.90;999.90;;;15.90;54.10;;;;;;5423375;26;19995;-72
2024/04/20 07:26:20;;;;;;;1999.90;999.90;;;16.50;51.80;;;;;;5423083;26;20696;-73
2024/04/20 07:28:46;;;;;;;1999.90;999.90;;;16.40;50.30;;;;;;5413777;26;20818;-74
2024/04/20 07:31:11;;;;;;;1999.90;999.90;;;16.60;51.50;;;;;;5419846;26;19996;-75
2024/04/20 07:33:37;;;;;;;1999.90;999.90;;;16.30;50.20;;;;;;5420020;26;19999;-74
2024/04/20 07:36:03;;;;;;;1999.90;999.90;;;16.50;48.60;;;;;;5414484;26;19996;-75
2024/04/20 07:38:28;;;;;;;1999.90;999.90;;;17.80;47.70;;;;;;5414477;26;20354;-74
2024/04/20 07:40:54;;;;;;;1999.90;999.90;;;17.10;46.60;;;;;;5425262;26;20446;-76
2024/04/20 07:43:20;;;;;;;1999.90;999.90;;;17.60;46.70;;;;;;5412218;26;20513;-74
2024/04/20 07:45:45;;;;;;;1999.90;999.90;;;17.60;45.30;;;;;;5419658;26;20767;-76
2024/04/20 07:48:11;;;;;;;1999.90;999.90;;;17.80;46.40;;;;;;5414380;26;20006;-77
2024/04/20 07:50:37;;;;;;;1999.90;999.90;;;19.40;43.20;;;;;;5411370;26;20085;-74
2024/04/20 07:53:02;;;;;;;1999.90;999.90;;;18.60;44.80;;;;;;5421561;26;20087;-77
2024/04/20 07:55:28;;;;;;;1999.90;999.90;;;18.80;41.80;;;;;;5410794;26;19995;-77
2024/04/20 07:57:54;;;;;;;1999.90;999.90;;;17.60;41.70;;;;;;5422395;26;20003;-73
2024/04/20 08:00:20;;;;;;;1999.90;999.90;;;20.10;44.10;;;;;;5428818;26;19999;-80
2024/04/20 08:02:46;;;;;;;1999.90;999.90;;;18.80;39.70;;;;;;5422688;26;20068;-74
2024/04/20 08:05:12;;;;;;;1999.90;999.90;;;18.80;41.10;;;;;;5417857;26;20432;-76
2024/04/20 08:07:38;;;;;;;1999.90;999.90;;;18.40;41.70;;;;;;5431849;26;20452;-74
2024/04/20 08:10:03;;;;;;;1999.90;999.90;;;18.20;38.40;;;;;;5404321;26;20872;-72
2024/04/20 08:12:29;;;;;;;1999.90;999.90;;;20.00;39.20;;;;;;5407306;26;20249;-72
2024/04/20 08:14:55;;;;;;;1999.90;999.90;;;19.60;37.30;;;;;;5411847;26;20012;-73
2024/04/20 08:17:20;;;;;;;1999.90;999.90;;;19.20;37.00;;;;;;5412066;26;20010;-72
2024/04/20 08:19:46;;;;;;;1999.90;999.90;;;19.60;36.90;;;;;;5416924;26;20237;-73
2024/04/20 08:22:12;;;;;;;1999.90;999.90;;;20.80;35.30;;;;;;5417327;26;20045;-73
2024/04/20 08:24:37;;;;;;;1999.90;999.90;;;20.60;36.00;;;;;;5422828;26;20013;-75
2024/04/20 08:27:03;;;;;;;1999.90;999.90;;;18.50;35.10;;;;;;5419900;26;20027;-78
2024/04/20 08:29:29;;;;;;;1999.90;999.90;;;21.40;36.70;;;;;;5413195;26;20007;-79
2024/04/20 08:31:55;;;;;;;1999.90;999.90;;;21.90;32.20;;;;;;5417703;26;20003;-79
2024/04/20 08:34:20;;;;;;;1999.90;999.90;;;19.20;31.60;;;;;;5412259;26;20000;-79
2024/04/20 08:36:46;;;;;;;1999.90;999.90;;;19.20;34.10;;;;;;5415917;26;20421;-81
2024/04/20 08:39:12;;;;;;;1999.90;999.90;;;19.00;34.40;;;;;;5408019;26;20902;-80
2024/04/20 08:41:52;;;;;;;1999.90;999.90;;;18.00;32.00;;;;;;5423173;26;20055;-79
2024/04/20 08:44:19;;;;;;;1999.90;999.90;;;16.50;35.20;;;;;;5411593;26;20051;-79
2024/04/20 08:46:48;;;;;;;1999.90;999.90;;;15.30;35.70;;;;;;5418413;26;19999;-83
2024/04/20 08:49:17;;;;;;;1999.90;999.90;;;20.80;30.20;;;;;;5422846;26;20094;-80
2024/04/20 08:51:44;;;;;;;1999.90;999.90;;;18.00;31.30;;;;;;5426201;26;20000;-79
2024/04/20 08:54:12;;;;;;;1999.90;999.90;;;21.10;28.70;;;;;;5419936;26;20015;-79
2024/04/20 08:56:40;;;;;;;1999.90;999.90;;;19.50;30.30;;;;;;5410412;26;20467;-79
2024/04/20 08:59:06;;;;;;;1999.90;999.90;;;18.40;32.70;;;;;;5433167;26;20005;-80
2024/04/20 09:01:34;;;;;;;1999.90;999.90;;;20.10;31.00;;;;;;5414392;26;19999;-79
2024/04/20 09:04:01;;;;;;;1999.90;999.90;;;19.40;30.80;;;;;;5430823;26;20015;-79
2024/04/20 09:06:27;;;;;;;1999.90;999.90;;;21.90;29.40;;;;;;5448669;26;20007;-80
2024/04/20 09:08:56;;;;;;;1999.90;999.90;;;22.10;28.70;;;;;;5427491;26;20006;-77
2024/04/20 09:11:22;;;;;;;1999.90;999.90;;;22.60;29.30;;;;;;5425395;26;20006;-74
2024/04/20 09:13:48;;;;;;;;;;;22.90;28.20;;;;;;5408484;26;19996;-75
2024/04/20 09:16:15;;;;;;;1999.90;999.90;;;23.50;26.20;;;;;;5436470;26;20264;-75
2024/04/20 09:18:40;;;;;;;1999.90;999.90;;;23.00;26.20;;;;;;5415695;26;19995;-74
2024/04/20 09:21:07;;;;;;;1999.90;999.90;;;22.50;24.90;;;;;;5418474;26;20464;-74
2024/04/20 09:23:33;;;;;;;1999.90;999.90;;;23.00;25.80;;;;;;5437945;26;20015;-75
2024/04/20 09:26:00;;;;;;;1999.90;999.90;;;22.40;24.50;;;;;;5405150;26;20006;-74
2024/04/20 09:28:29;;;;;;;1999.90;999.90;;;22.60;24.90;;;;;;5403659;26;20045;-74
2024/04/20 09:30:55;;;;;;;1999.90;999.90;;;21.00;24.90;;;;;;5414610;26;20003;-74
2024/04/20 09:33:21;;;;;;;1999.90;999.90;;;20.80;24.70;;;;;;5438274;26;20009;-75
2024/04/20 09:35:47;;;;;;;1999.90;999.90;;;20.70;24.20;;;;;;5403240;26;20093;-74
2024/04/20 09:38:13;;;;;;;1999.90;999.90;;;20.40;24.70;;;;;;5427073;26;19999;-74
2024/04/20 09:40:39;;;;;;;1999.90;999.90;;;23.60;25.40;;;;;;5426470;26;20043;-74
2024/04/20 09:43:06;;;;;;;1999.90;999.90;;;23.30;22.40;;;;;;5427512;26;20477;-75
2024/04/20 09:45:36;;;;;;;1999.90;999.90;;;22.80;24.10;;;;;;5435649;26;20013;-74
2024/04/20 09:48:06;;;;;;;1999.90;999.90;;;22.10;24.00;;;;;;5422303;26;20096;-75
2024/04/20 09:50:32;;;;;;;1999.90;999.90;;;22.50;23.50;;;;;;5431149;26;20526;-75
2024/04/20 09:53:07;;;;;;;1999.90;999.90;;;22.90;22.80;;;;;;5407808;26;20032;-74
2024/04/20 09:55:34;;;;;;;1999.90;999.90;;;22.60;22.00;;;;;;5423081;26;20006;-74
2024/04/20 09:58:03;;;;;;;1999.90;999.90;;;21.80;24.10;;;;;;5411924;26;20659;-75
2024/04/20 10:00:36;;;;;;;1999.90;999.90;;;22.50;25.20;;;;;;5413209;26;20064;-74
2024/04/20 10:03:06;;;;;;;1999.90;999.90;;;22.70;23.40;;;;;;5410228;26;20011;-74
2024/04/20 10:05:36;;;;;;;1999.90;999.90;;;24.00;23.80;;;;;;5423854;26;19999;-74
2024/04/20 10:08:03;;;;;;;1999.90;999.90;;;24.60;23.90;;;;;;5422150;26;20645;-76
2024/04/20 10:10:30;;;;;;;1999.90;999.90;;;23.20;23.50;;;;;;5416685;26;20912;-74
2024/04/20 10:13:02;;;;;;;1999.90;999.90;;;23.50;22.80;;;;;;5420192;26;20297;-74
2024/04/20 10:15:30;;;;;;;1999.90;999.90;;;22.00;23.40;;;;;;5428218;26;20014;-74
2024/04/20 10:17:56;;;;;;;1999.90;999.90;;;20.20;23.80;;;;;;5420412;26;20019;-74
2024/04/20 10:20:32;;;;;;;;;;;19.70;25.80;;;;;;5427208;26;20105;-75
2024/04/20 10:22:59;;;;;;;1999.90;999.90;;;19.10;25.50;;;;;;5426081;26;20018;-74
2024/04/20 10:25:29;;;;;;;1999.90;999.90;;;17.60;25.60;;;;;;5422170;26;20700;-74
2024/04/20 10:27:55;;;;;;;1999.90;999.90;;;18.40;26.40;;;;;;5420041;26;20094;-74
2024/04/20 10:30:22;;;;;;;1999.90;999.90;;;17.80;27.60;;;;;;5425854;26;20007;-74
2024/04/20 10:32:52;;;;;;;1999.90;999.90;;;18.00;27.40;;;;;;5418019;26;19999;-74
2024/04/20 10:35:21;;;;;;;1999.90;999.90;;;17.70;27.10;;;;;;5423292;26;20003;-74
2024/04/20 10:38:00;;;;;;;1999.90;999.90;;;17.40;26.70;;;;;;5419031;26;20011;-74
2024/04/20 10:40:33;;;;;;;1999.90;999.90;;;18.00;30.70;;;;;;5417817;26;20015;-74
2024/04/20 10:43:18;;;;;;;1999.90;999.90;;;16.70;27.00;;;;;;5418871;26;19995;-73
2024/04/20 10:45:44;;;;;;;1999.90;999.90;;;17.40;28.00;;;;;;5417591;26;20019;-74
2024/04/20 10:48:14;;;;;;;1999.90;999.90;;;17.20;28.30;;;;;;5412844;26;20014;-74
2024/04/20 10:50:43;;;;;;;1999.90;999.90;;;16.70;28.80;;;;;;5410426;26;20024;-73
2024/04/20 10:53:10;;;;;;;1999.90;999.90;;;17.20;28.90;;;;;;5413361;26;20343;-73
2024/04/20 10:55:36;;;;;;;1999.90;999.90;;;16.90;28.50;;;;;;5414052;26;20018;-74
2024/04/20 10:58:03;;;;;;;1999.90;999.90;;;16.50;30.00;;;;;;5429096;26;21079;-74
2024/04/20 11:00:29;;;;;;;1999.90;999.90;;;16.80;29.80;;;;;;5415985;26;19996;-74
2024/04/20 11:02:55;;;;;;;1999.90;999.90;;;17.60;30.30;;;;;;5417752;26;20096;-74
2024/04/20 11:05:22;;;;;;;1999.90;999.90;;;16.90;29.90;;;;;;5418278;26;20019;-74
2024/04/20 11:07:57;;;;;;;;;;;16.80;30.80;;;;;;5414355;26;20006;-74
2024/04/20 11:10:23;;;;;;;1999.90;999.90;;;17.20;32.80;;;;;;5424832;26;20263;-74
2024/04/20 11:12:59;;;;;;;1999.90;999.90;;;17.10;30.00;;;;;;5402552;26;20015;-74
2024/04/20 11:15:24;;;;;;;1999.90;999.90;;;16.50;32.70;;;;;;5426824;26;20013;-74
2024/04/20 11:17:51;;;;;;;1999.90;999.90;;;16.20;30.20;;;;;;5417007;26;20042;-74
2024/04/20 11:20:16;;;;;;;1999.90;999.90;;;15.80;31.10;;;;;;5420722;26;20068;-74
2024/04/20 11:22:43;;;;;;;1999.90;999.90;;;15.90;30.90;;;;;;5416526;26;20000;-74
2024/04/20 11:25:09;;;;;;;1999.90;999.90;;;16.00;29.70;;;;;;5429116;26;20000;-73
2024/04/20 11:27:35;;;;;;;1999.90;999.90;;;15.80;30.50;;;;;;5433492;26;19998;-73
2024/04/20 11:30:02;;;;;;;1999.90;999.90;;;15.70;33.30;;;;;;5415152;26;20522;-73
2024/04/20 11:32:28;;;;;;;1999.90;999.90;;;15.40;30.40;;;;;;5412151;26;20005;-74
2024/04/20 11:34:54;;;;;;;1999.90;999.90;;;15.80;31.40;;;;;;5412512;26;20800;-74
2024/04/20 11:37:21;;;;;;;1999.90;999.90;;;15.80;29.10;;;;;;5418852;26;20345;-73
2024/04/20 11:39:47;;;;;;;1999.90;999.90;;;15.20;29.70;;;;;;5407861;26;19995;-73
2024/04/20 11:42:16;;;;;;;1999.90;999.90;;;15.50;29.60;;;;;;5418873;26;20015;-73
2024/04/20 11:44:43;;;;;;;1999.90;999.90;;;15.40;31.60;;;;;;5407008;26;20218;-74
2024/04/20 11:47:16;;;;;;;1999.90;999.90;;;15.30;29.50;;;;;;5416815;26;20003;-75
2024/04/20 11:49:52;;;;;;;1999.90;999.90;;;15.40;30.00;;;;;;5410850;26;20859;-74
2024/04/20 11:55:07;;;;;;;1999.90;999.90;;;14.60;30.10;;;;;;5416062;26;20018;-73
2024/04/20 11:57:33;;;;;;;1999.90;999.90;;;14.50;32.00;;;;;;5404794;26;20314;-73
2024/04/20 12:00:03;;;;;;;1999.90;999.90;;;14.50;29.40;;;;;;5416208;26;20438;-75
2024/04/20 12:02:28;;;;;;;1999.90;999.90;;;15.00;31.70;;;;;;5411902;26;20003;-75
2024/04/20 12:04:54;;;;;;;1999.90;999.90;;;14.80;33.10;;;;;;5421414;26;20000;-75